Terminal Aerodrome Forecast
Issued by NWS

Home | Current Version | Previous Version | Graphics & Text | Print | Product List | Glossary On
Versions: 1 2 3 4 5 6 7 8 9 10 11 12 13 14 15 16 17 18 19 20 21 22 23 24
000
FTUS43 KLOT 220059 AAA
TAFGYY
TAF AMD
KGYY 220059Z 2201/2224 12008KT P6SM SCT050 BKN120
     FM220130 14006KT 6SM -SHRA VCTS SCT040 BKN100CB
      TEMPO 2202/2205 1SM TSRA BKN040CB
     FM220500 19008KT 5SM -SHRA VCTS BKN035 BKN080CB
      TEMPO 2205/2209 2SM TSRA SCT015 BKN025CB
     FM221100 21010KT P6SM SCT035 BKN050
     FM221800 01008KT P6SM BKN050=

USA.gov is the U.S. government's official web portal to all federal, state and local government web resources and services.